createdAt,value
2019-05-01T00:01:03.824Z,19.87
2019-05-01T00:02:09.848Z,20.25
2019-05-01T00:03:21.964Z,21.97
2019-05-01T00:04:33.644Z,19.07
2019-05-01T00:05:42.425Z,21.57
2019-05-01T00:06:50.944Z,20.23
2019-05-01T00:07:56.197Z,18.90
2019-05-01T00:09:00.445Z,18.37
2019-05-01T00:10:06.875Z,23.07
2019-05-01T00:11:11.349Z,21.47
2019-05-01T00:12:15.528Z,20.40
2019-05-01T00:13:19.828Z,21.70
2019-05-01T00:14:24.009Z,17.52
2019-05-01T00:15:32.337Z,20.52
2019-05-01T00:16:36.529Z,20.43
2019-05-01T00:17:40.973Z,22.02
2019-05-01T00:18:45.374Z,19.48
2019-05-01T00:19:49.622Z,20.23
2019-05-01T00:20:53.909Z,20.23
2019-05-01T00:21:58.129Z,21.20
2019-05-01T00:23:02.386Z,20.00
2019-05-01T00:24:06.618Z,23.40
2019-05-01T00:25:10.874Z,19.37
2019-05-01T00:26:15.197Z,21.43
2019-05-01T00:27:20.551Z,20.43
2019-05-01T00:28:24.910Z,20.52
2019-05-01T00:29:29.417Z,19.87
2019-05-01T00:30:35.314Z,21.93
2019-05-01T00:31:39.565Z,24.15
2019-05-01T00:32:43.939Z,21.27
2019-05-01T00:33:48.224Z,23.98
2019-05-01T00:34:52.658Z,20.77
2019-05-01T00:35:56.912Z,20.62
2019-05-01T00:37:01.181Z,19.80
2019-05-01T00:38:05.710Z,22.37
2019-05-01T00:39:11.560Z,22.13
2019-05-01T00:40:16.182Z,21.00
2019-05-01T00:41:20.433Z,21.50
2019-05-01T00:42:24.612Z,21.57
2019-05-01T00:43:29.226Z,21.75
2019-05-01T00:44:33.715Z,23.10
2019-05-01T00:45:37.969Z,21.87
2019-05-01T00:46:42.226Z,22.20
2019-05-01T00:47:46.483Z,21.90
2019-05-01T00:48:50.886Z,21.30
2019-05-01T00:49:56.176Z,21.00
2019-05-01T00:51:00.489Z,19.15
2019-05-01T00:52:04.765Z,21.73
2019-05-01T00:53:08.954Z,22.10
2019-05-01T00:54:13.248Z,22.10
2019-05-01T00:55:34.289Z,22.80
2019-05-01T00:56:48.700Z,19.92
2019-05-01T00:57:54.531Z,22.17
2019-05-01T00:59:00.412Z,23.47
2019-05-01T01:00:20.630Z,21.20
2019-05-01T01:01:32.202Z,22.90
2019-05-01T01:02:38.028Z,24.65
2019-05-01T01:03:42.212Z,20.15
2019-05-01T01:04:46.596Z,21.60
2019-05-01T01:05:50.988Z,22.48
2019-05-01T01:06:55.243Z,23.02
2019-05-01T01:07:59.632Z,26.05
2019-05-01T01:09:07.615Z,23.24
2019-05-01T01:10:13.465Z,23.47
2019-05-01T01:11:17.646Z,25.00
2019-05-01T01:12:21.921Z,24.27
2019-05-01T01:13:26.108Z,22.15
2019-05-01T01:14:30.498Z,21.62
2019-05-01T01:15:34.670Z,22.10
2019-05-01T01:16:38.969Z,22.73
2019-05-01T01:17:43.178Z,21.65
2019-05-01T01:18:47.548Z,22.17
2019-05-01T01:19:52.661Z,24.47
2019-05-01T01:20:56.846Z,25.68
2019-05-01T01:22:01.185Z,19.27
2019-05-01T01:23:05.385Z,21.80
2019-05-01T01:24:09.570Z,20.83
2019-05-01T01:25:13.825Z,22.43
2019-05-01T01:26:18.346Z,21.50
2019-05-01T01:27:23.350Z,21.47
2019-05-01T01:28:27.557Z,20.30
2019-05-01T01:29:31.822Z,23.60
2019-05-01T01:30:36.001Z,24.60
2019-05-01T01:31:40.249Z,20.77
2019-05-01T01:32:44.543Z,21.33
2019-05-01T01:33:49.694Z,22.13
2019-05-01T01:34:53.949Z,21.48
2019-05-01T01:35:58.175Z,22.93
2019-05-01T01:37:02.527Z,24.70
2019-05-01T01:38:07.598Z,25.17
2019-05-01T01:39:11.825Z,22.53
2019-05-01T01:40:16.213Z,22.50
2019-05-01T01:41:20.399Z,26.63
2019-05-01T01:42:24.716Z,20.57
2019-05-01T01:43:48.709Z,20.23
2019-05-01T01:44:57.230Z,19.82
2019-05-01T01:46:05.605Z,22.70
2019-05-01T01:47:09.952Z,23.33
2019-05-01T01:48:17.655Z,24.67
2019-05-01T01:49:21.901Z,22.80
2019-05-01T01:50:26.080Z,22.17
2019-05-01T01:51:30.348Z,21.68
2019-05-01T01:52:34.593Z,21.77
2019-05-01T01:53:39.117Z,20.97
2019-05-01T01:54:44.567Z,24.07
2019-05-01T01:55:48.772Z,22.90
2019-05-01T01:56:52.959Z,22.33
2019-05-01T01:57:57.281Z,22.58
2019-05-01T01:59:01.516Z,22.70
2019-05-01T02:00:08.499Z,20.27
2019-05-01T02:01:31.342Z,21.90
2019-05-01T02:02:38.389Z,24.18
2019-05-01T02:03:47.300Z,21.48
2019-05-01T02:04:55.892Z,20.43
2019-05-01T02:06:00.321Z,22.37
2019-05-01T02:07:05.381Z,22.70
2019-05-01T02:08:09.690Z,23.27
2019-05-01T02:09:13.927Z,23.00
2019-05-01T02:10:18.334Z,22.47
2019-05-01T02:11:22.669Z,22.97
2019-05-01T02:12:26.853Z,21.85
2019-05-01T02:13:31.262Z,23.35
2019-05-01T02:14:35.445Z,23.55
2019-05-01T02:15:39.726Z,23.40
2019-05-01T02:16:44.876Z,21.30
2019-05-01T02:17:49.049Z,23.45
2019-05-01T02:18:53.628Z,21.45
2019-05-01T02:19:57.874Z,26.45
2019-05-01T02:21:02.059Z,24.37
2019-05-01T02:22:06.774Z,25.52
2019-05-01T02:23:11.025Z,24.53
2019-05-01T02:24:15.207Z,23.37
2019-05-01T02:25:19.665Z,23.27
2019-05-01T02:26:25.627Z,24.75
2019-05-01T02:27:37.040Z,23.05
2019-05-01T02:28:42.873Z,23.22
2019-05-01T02:29:48.683Z,23.47
2019-05-01T02:31:27.185Z,24.18
2019-05-01T02:32:16.380Z,23.32
2019-05-01T02:33:20.687Z,24.10
2019-05-01T02:34:26.195Z,24.23
2019-05-01T02:35:30.611Z,27.48
2019-05-01T02:36:34.811Z,24.60
2019-05-01T02:37:39.069Z,24.05
2019-05-01T02:38:43.499Z,24.90
2019-05-01T02:39:47.745Z,21.62
2019-05-01T02:40:53.681Z,23.25
2019-05-01T02:41:59.346Z,22.65
2019-05-01T02:43:03.505Z,24.70
2019-05-01T02:44:16.694Z,22.85
2019-05-01T02:45:21.413Z,24.27
2019-05-01T02:46:25.848Z,25.57
2019-05-01T02:47:31.996Z,23.62
2019-05-01T02:48:36.393Z,27.35
2019-05-01T02:49:51.926Z,23.00
2019-05-01T02:50:56.964Z,22.77
2019-05-01T02:52:01.967Z,23.65
2019-05-01T02:53:06.144Z,21.57
2019-05-01T02:54:11.184Z,23.37
2019-05-01T02:55:26.022Z,23.93
2019-05-01T02:56:34.542Z,25.20
2019-05-01T02:57:38.728Z,25.88
2019-05-01T02:58:43.589Z,28.42
2019-05-01T02:59:50.089Z,22.98
2019-05-01T03:00:54.273Z,25.05
2019-05-01T03:01:58.805Z,24.65
2019-05-01T03:03:02.989Z,24.07
2019-05-01T03:04:07.206Z,26.55
2019-05-01T03:05:11.423Z,25.93
2019-05-01T03:06:16.821Z,28.07
2019-05-01T03:07:21.162Z,23.52
2019-05-01T03:08:25.578Z,23.42
2019-05-01T03:09:29.816Z,25.15
2019-05-01T03:10:34.468Z,26.50
2019-05-01T03:11:39.346Z,24.32
2019-05-01T03:12:44.151Z,24.77
2019-05-01T03:13:48.358Z,22.32
2019-05-01T03:14:52.552Z,23.90
2019-05-01T03:15:56.742Z,23.85
2019-05-01T03:17:02.194Z,23.73
2019-05-01T03:18:14.695Z,25.68
2019-05-01T03:19:35.619Z,22.50
2019-05-01T03:20:41.507Z,24.43
2019-05-01T03:21:50.820Z,26.25
2019-05-01T03:23:14.731Z,24.98
2019-05-01T03:24:24.476Z,26.07
2019-05-01T03:25:28.704Z,24.87
2019-05-01T03:26:32.893Z,25.60
2019-05-01T03:27:37.163Z,25.68
2019-05-01T03:28:41.365Z,29.07
2019-05-01T03:29:45.552Z,25.95
2019-05-01T03:30:49.840Z,25.63
2019-05-01T03:32:15.968Z,23.98
2019-05-01T03:33:00.029Z,23.83
2019-05-01T03:34:04.945Z,25.12
2019-05-01T03:35:09.101Z,25.43
2019-05-01T03:36:14.254Z,22.37
2019-05-01T03:37:18.435Z,24.10
2019-05-01T03:38:22.640Z,26.93
2019-05-01T03:39:27.241Z,26.87
2019-05-01T03:40:31.565Z,23.65
2019-05-01T03:41:35.755Z,25.65
2019-05-01T03:42:40.013Z,26.68
2019-05-01T03:43:44.267Z,21.62
2019-05-01T03:44:48.476Z,23.62
2019-05-01T03:45:53.032Z,23.45
2019-05-01T03:46:57.204Z,21.40
2019-05-01T03:48:01.392Z,24.15
2019-05-01T03:49:05.579Z,23.20
2019-05-01T03:50:09.762Z,25.65
2019-05-01T03:51:13.990Z,26.67
2019-05-01T03:52:18.160Z,24.97
2019-05-01T03:53:22.694Z,26.43
2019-05-01T03:54:27.053Z,24.18
2019-05-01T03:55:31.356Z,28.07
2019-05-01T03:56:35.573Z,26.30
2019-05-01T03:57:39.727Z,29.18
2019-05-01T03:58:43.972Z,27.60
2019-05-01T03:59:48.190Z,27.27
2019-05-01T04:01:09.053Z,30.25
2019-05-01T04:02:33.968Z,31.23
2019-05-01T04:03:37.180Z,28.33
2019-05-01T04:04:41.418Z,26.00
2019-05-01T04:05:45.737Z,29.77
2019-05-01T04:06:49.943Z,27.52
2019-05-01T04:07:54.123Z,29.63
2019-05-01T04:08:58.316Z,31.55
2019-05-01T04:10:02.563Z,29.32
2019-05-01T04:11:06.826Z,31.07
2019-05-01T04:12:11.034Z,29.20
2019-05-01T04:13:15.365Z,28.63
2019-05-01T04:14:19.800Z,29.73
2019-05-01T04:15:24.003Z,28.95
2019-05-01T04:16:28.291Z,30.55
2019-05-01T04:17:36.624Z,28.07
2019-05-01T04:18:40.850Z,31.60
2019-05-01T04:19:45.111Z,29.45
2019-05-01T04:20:50.000Z,30.65
2019-05-01T04:21:56.919Z,32.53
2019-05-01T04:23:02.338Z,32.93
2019-05-01T04:24:06.575Z,33.42
2019-05-01T04:25:10.748Z,36.90
2019-05-01T04:26:14.937Z,37.20
2019-05-01T04:27:20.753Z,34.93
2019-05-01T04:28:26.661Z,37.13
2019-05-01T04:29:33.532Z,36.50
2019-05-01T04:30:57.570Z,34.45
2019-05-01T04:32:20.286Z,33.73
2019-05-01T04:33:24.540Z,36.68
2019-05-01T04:34:45.364Z,34.88
2019-05-01T04:36:07.594Z,34.30
2019-05-01T04:37:13.436Z,36.00
2019-05-01T04:38:18.970Z,33.90
2019-05-01T04:39:23.510Z,35.17
2019-05-01T04:40:27.731Z,37.28
2019-05-01T04:41:31.932Z,35.95
2019-05-01T04:42:36.195Z,36.05
2019-05-01T04:43:40.363Z,35.85
2019-05-01T04:44:44.693Z,35.10
2019-05-01T04:45:50.340Z,38.20
2019-05-01T04:46:54.527Z,34.90
2019-05-01T04:47:58.892Z,35.75
2019-05-01T04:49:03.073Z,37.23
2019-05-01T04:50:07.280Z,40.58
2019-05-01T04:51:11.493Z,37.63
2019-05-01T04:52:15.823Z,38.48
2019-05-01T04:53:20.018Z,35.07
2019-05-01T04:54:24.201Z,32.03
2019-05-01T04:55:28.403Z,35.48
2019-05-01T04:56:32.615Z,34.55
2019-05-01T04:57:36.945Z,34.70
2019-05-01T04:58:41.130Z,34.23
2019-05-01T04:59:45.392Z,32.00
2019-05-01T05:00:49.621Z,36.25
2019-05-01T05:02:01.561Z,31.80
2019-05-01T05:03:10.375Z,36.28
2019-05-01T05:04:14.993Z,35.10
2019-05-01T05:05:19.295Z,35.47
2019-05-01T05:06:23.601Z,36.93
2019-05-01T05:07:27.807Z,36.00
2019-05-01T05:08:31.996Z,34.67
2019-05-01T05:09:43.181Z,35.03
2019-05-01T05:10:48.542Z,40.28
2019-05-01T05:12:00.416Z,35.25
2019-05-01T05:13:15.907Z,32.73
2019-05-01T05:14:24.675Z,33.77
2019-05-01T05:15:33.174Z,39.10
2019-05-01T05:16:48.280Z,37.40
2019-05-01T05:17:52.581Z,34.13
2019-05-01T05:18:56.799Z,35.15
2019-05-01T05:20:01.190Z,35.83
2019-05-01T05:21:05.438Z,33.42
2019-05-01T05:22:09.604Z,33.87
2019-05-01T05:23:14.760Z,30.97
2019-05-01T05:24:18.979Z,34.93
2019-05-01T05:25:23.158Z,34.80
2019-05-01T05:26:27.341Z,36.70
2019-05-01T05:27:31.593Z,33.25
2019-05-01T05:28:35.950Z,37.42
2019-05-01T05:29:40.231Z,32.88
2019-05-01T05:30:44.953Z,33.70
2019-05-01T05:31:49.301Z,31.77
2019-05-01T05:32:53.693Z,35.20
2019-05-01T05:33:58.136Z,34.50
2019-05-01T05:35:02.392Z,32.20
2019-05-01T05:36:07.032Z,33.35
2019-05-01T05:37:12.853Z,27.47
2019-05-01T05:38:33.648Z,33.83
2019-05-01T05:39:39.502Z,32.78
2019-05-01T05:40:43.778Z,32.98
2019-05-01T05:41:48.105Z,37.60
2019-05-01T05:42:52.322Z,37.85
2019-05-01T05:43:56.805Z,33.38
2019-05-01T05:45:01.213Z,33.25
2019-05-01T05:46:05.476Z,32.20
2019-05-01T05:47:09.732Z,38.03
2019-05-01T05:48:13.930Z,37.87
2019-05-01T05:49:18.140Z,33.60
2019-05-01T05:50:23.964Z,32.17
2019-05-01T05:51:44.865Z,37.78
2019-05-01T05:53:04.471Z,34.20
2019-05-01T05:54:16.179Z,38.65
2019-05-01T05:55:31.174Z,36.17
2019-05-01T05:56:37.204Z,35.43
2019-05-01T05:57:58.238Z,36.63
2019-05-01T05:59:07.626Z,35.28
2019-05-01T06:00:13.501Z,40.20
2019-05-01T06:01:28.526Z,40.77
2019-05-01T06:02:34.393Z,38.75
2019-05-01T06:03:55.467Z,45.58
2019-05-01T06:05:06.100Z,44.15
2019-05-01T06:06:17.698Z,39.50
2019-05-01T06:07:26.485Z,40.70
2019-05-01T06:08:30.788Z,44.37
2019-05-01T06:09:36.705Z,57.67
2019-05-01T06:10:45.536Z,64.05
2019-05-01T06:11:59.952Z,63.23
2019-05-01T06:13:23.098Z,61.58
2019-05-01T06:14:42.249Z,42.08
2019-05-01T06:16:04.151Z,43.63
2019-05-01T06:17:28.900Z,46.05
2019-05-01T06:18:39.281Z,46.60
2019-05-01T06:19:49.300Z,43.55
2019-05-01T06:20:57.207Z,41.20
2019-05-01T06:22:21.463Z,42.10
2019-05-01T06:23:37.229Z,41.53
2019-05-01T06:24:43.059Z,45.12
2019-05-01T06:25:48.894Z,40.98
2019-05-01T06:26:53.122Z,46.20
2019-05-01T06:27:57.425Z,41.25
2019-05-01T06:29:02.445Z,44.23
2019-05-01T06:30:10.994Z,42.50
2019-05-01T06:31:23.115Z,40.03
2019-05-01T06:33:28.033Z,41.85
2019-05-01T06:34:32.251Z,42.58
2019-05-01T06:35:38.078Z,37.13
2019-05-01T06:36:44.311Z,38.33
2019-05-01T06:38:02.183Z,38.95
2019-05-01T06:39:11.879Z,37.93
2019-05-01T06:40:18.778Z,37.73
2019-05-01T06:41:21.352Z,39.87
2019-05-01T06:42:25.472Z,38.00
2019-05-01T06:43:31.545Z,40.40
2019-05-01T06:44:45.821Z,39.05
2019-05-01T06:46:07.912Z,39.00
2019-05-01T06:47:13.757Z,40.10
2019-05-01T06:48:19.594Z,39.37
2019-05-01T06:49:31.297Z,40.55
2019-05-01T06:50:41.428Z,39.90
2019-05-01T06:51:48.074Z,35.05
2019-05-01T06:53:56.685Z,33.83
2019-05-01T06:55:00.901Z,36.17
2019-05-01T06:56:05.080Z,35.43
2019-05-01T06:57:09.269Z,35.73
2019-05-01T06:58:14.779Z,37.37
2019-05-01T06:59:19.473Z,35.95
2019-05-01T07:00:23.697Z,35.37
2019-05-01T07:01:27.948Z,30.43
2019-05-01T07:02:35.126Z,37.75
2019-05-01T07:03:40.823Z,33.60
2019-05-01T07:04:44.190Z,35.70
2019-05-01T07:05:49.158Z,36.05
2019-05-01T07:06:54.462Z,40.17
2019-05-01T07:07:58.708Z,36.40
2019-05-01T07:09:06.958Z,39.18
2019-05-01T07:10:10.412Z,33.77
2019-05-01T07:11:15.603Z,35.57
2019-05-01T07:12:24.009Z,39.80
2019-05-01T07:13:28.033Z,33.53
2019-05-01T07:14:41.037Z,38.58
2019-05-01T07:18:37.427Z,33.87
2019-05-01T07:19:57.520Z,36.75
2019-05-01T07:21:02.344Z,37.38
2019-05-01T07:22:07.479Z,37.35
2019-05-01T07:23:17.497Z,35.17
2019-05-01T07:24:19.027Z,35.53
2019-05-01T07:25:23.210Z,39.80
2019-05-01T07:26:27.399Z,40.88
2019-05-01T07:27:31.633Z,34.35
2019-05-01T07:28:37.000Z,34.98
2019-05-01T07:29:44.875Z,39.30
2019-05-01T07:30:56.292Z,40.80
2019-05-01T07:32:01.700Z,37.40
2019-05-01T07:33:06.578Z,39.45
2019-05-01T07:34:16.785Z,37.73
2019-05-01T07:35:17.004Z,37.80
2019-05-01T07:36:21.317Z,37.00
2019-05-01T07:37:27.593Z,36.40
2019-05-01T07:38:32.882Z,34.98
2019-05-01T07:39:37.374Z,34.23
2019-05-01T07:40:41.555Z,33.65
2019-05-01T07:41:45.840Z,39.17
2019-05-01T07:42:54.569Z,38.42
2019-05-01T07:44:18.988Z,36.68
2019-05-01T07:45:26.591Z,39.88
2019-05-01T07:46:35.097Z,34.83
2019-05-01T07:47:40.951Z,36.50
2019-05-01T07:48:45.228Z,35.43
2019-05-01T07:49:54.987Z,34.78
2019-05-01T07:51:01.848Z,33.83
2019-05-01T07:52:05.118Z,36.05
2019-05-01T07:53:09.326Z,36.38
2019-05-01T07:54:13.623Z,36.07
2019-05-01T07:55:20.079Z,36.03
2019-05-01T07:56:28.012Z,38.55
2019-05-01T07:57:34.239Z,36.58
2019-05-01T07:58:38.350Z,32.63
2019-05-01T07:59:42.536Z,37.58
2019-05-01T08:00:54.165Z,37.03
2019-05-01T08:02:00.002Z,34.60
2019-05-01T08:03:07.162Z,37.32
2019-05-01T08:04:13.820Z,35.95
2019-05-01T08:05:16.354Z,37.33
2019-05-01T08:06:21.859Z,36.50
2019-05-01T08:07:27.735Z,38.20
2019-05-01T08:08:32.334Z,34.33
2019-05-01T08:09:36.533Z,36.75
2019-05-01T08:10:41.081Z,36.17
2019-05-01T08:11:46.022Z,37.70
2019-05-01T08:12:50.237Z,33.40
2019-05-01T08:14:06.599Z,38.48
2019-05-01T08:15:00.297Z,36.08
2019-05-01T08:16:07.242Z,34.55
2019-05-01T08:17:12.748Z,37.23
2019-05-01T08:18:30.982Z,36.20
2019-05-01T08:19:40.723Z,31.15
2019-05-01T08:20:58.660Z,34.20
2019-05-01T08:22:13.892Z,37.03
2019-05-01T08:23:18.105Z,34.83
2019-05-01T08:24:24.430Z,35.50
2019-05-01T08:25:33.106Z,33.30
2019-05-01T08:26:34.739Z,34.35
2019-05-01T08:27:46.428Z,36.05
2019-05-01T08:28:54.951Z,34.80
2019-05-01T08:30:18.598Z,36.03
2019-05-01T08:31:29.003Z,37.00
2019-05-01T08:32:42.171Z,36.73
2019-05-01T08:33:54.007Z,35.00
2019-05-01T08:35:02.160Z,32.85
2019-05-01T08:36:06.785Z,34.43
2019-05-01T08:37:12.246Z,36.33
2019-05-01T08:38:16.435Z,33.30
2019-05-01T08:39:20.640Z,35.43
2019-05-01T08:40:24.892Z,33.55
2019-05-01T08:41:31.835Z,35.73
2019-05-01T08:42:37.747Z,33.07
2019-05-01T08:43:41.145Z,32.85
2019-05-01T08:45:05.115Z,36.63
2019-05-01T08:46:16.531Z,31.95
2019-05-01T08:48:46.686Z,37.17
2019-05-01T08:49:52.597Z,35.40
2019-05-01T08:50:59.220Z,31.95
2019-05-01T08:52:11.225Z,35.68
2019-05-01T08:53:10.965Z,35.57
2019-05-01T08:54:15.222Z,35.60
2019-05-01T08:55:19.417Z,35.83
2019-05-01T08:56:23.946Z,32.67
2019-05-01T08:57:29.209Z,36.20
2019-05-01T08:58:34.163Z,36.38
2019-05-01T08:59:38.482Z,35.28
2019-05-01T09:00:43.269Z,35.28
2019-05-01T09:01:50.633Z,36.03
2019-05-01T09:02:54.017Z,35.80
2019-05-01T09:03:58.366Z,33.78
2019-05-01T09:05:06.834Z,35.33
2019-05-01T09:06:09.189Z,34.43
2019-05-01T09:07:14.745Z,32.93
2019-05-01T09:08:19.858Z,32.70
2019-05-01T09:09:25.077Z,35.38
2019-05-01T09:10:29.343Z,36.25
2019-05-01T09:11:36.271Z,39.35
2019-05-01T09:12:42.583Z,33.25
2019-05-01T09:13:45.944Z,39.85
2019-05-01T09:14:51.274Z,33.33
2019-05-01T09:15:55.998Z,35.95
2019-05-01T09:17:00.683Z,35.58
2019-05-01T09:18:05.038Z,37.00
2019-05-01T09:19:09.462Z,35.03
2019-05-01T09:20:16.591Z,35.87
2019-05-01T09:21:20.214Z,34.17
2019-05-01T09:22:24.520Z,32.83
2019-05-01T09:23:28.774Z,35.85
2019-05-01T09:24:33.164Z,33.70
2019-05-01T09:25:55.129Z,35.20
2019-05-01T09:27:18.671Z,39.45
2019-05-01T09:28:35.957Z,30.20
2019-05-01T09:29:46.916Z,32.40
2019-05-01T09:31:01.283Z,31.67
2019-05-01T09:32:00.419Z,35.92
2019-05-01T09:33:04.988Z,34.42
2019-05-01T09:34:09.614Z,36.33
2019-05-01T09:35:15.797Z,33.47
2019-05-01T09:36:19.824Z,32.60
2019-05-01T09:37:24.107Z,31.20
2019-05-01T09:38:28.531Z,28.45
2019-05-01T09:39:32.831Z,33.88
2019-05-01T09:40:37.104Z,33.28
2019-05-01T09:41:43.111Z,35.00
2019-05-01T09:42:47.652Z,32.45
2019-05-01T09:43:52.953Z,36.45
2019-05-01T09:44:57.393Z,32.38
2019-05-01T09:46:01.835Z,31.93
2019-05-01T09:47:07.499Z,31.95
2019-05-01T09:48:11.847Z,36.17
2019-05-01T09:49:18.223Z,32.50
2019-05-01T09:50:25.949Z,35.43
2019-05-01T09:51:47.542Z,34.73
2019-05-01T09:52:55.271Z,34.73
2019-05-01T09:54:09.894Z,30.57
2019-05-01T09:55:23.038Z,32.30
2019-05-01T09:56:26.468Z,32.73
2019-05-01T09:57:31.093Z,30.77
2019-05-01T09:58:35.295Z,32.17
2019-05-01T09:59:39.549Z,31.77
2019-05-01T10:00:48.763Z,34.38
2019-05-01T10:01:50.791Z,34.88
2019-05-01T10:02:55.042Z,30.88
2019-05-01T10:03:59.377Z,29.35
2019-05-01T10:05:06.753Z,34.00
2019-05-01T10:06:12.821Z,35.50
2019-05-01T10:07:17.472Z,30.33
2019-05-01T10:08:21.950Z,33.37
2019-05-01T10:09:26.936Z,31.50
2019-05-01T10:10:31.273Z,30.40
2019-05-01T10:11:40.687Z,32.40
2019-05-01T10:12:46.868Z,29.55
2019-05-01T10:13:49.373Z,33.25
2019-05-01T10:14:53.756Z,34.05
2019-05-01T10:15:58.266Z,29.85
2019-05-01T10:17:02.563Z,31.55
2019-05-01T10:18:07.030Z,28.40
2019-05-01T10:19:11.354Z,27.83
2019-05-01T10:20:15.822Z,27.33
2019-05-01T10:21:22.406Z,27.70
2019-05-01T10:22:26.302Z,25.75
2019-05-01T10:23:30.725Z,25.60
2019-05-01T10:24:37.757Z,27.87
2019-05-01T10:25:47.426Z,30.37
2019-05-01T10:26:50.328Z,30.48
2019-05-01T10:28:01.841Z,32.13
2019-05-01T10:29:10.582Z,29.50
2019-05-01T10:30:36.282Z,28.30
2019-05-01T10:31:59.346Z,26.23
2019-05-01T10:33:17.778Z,25.55
2019-05-01T10:34:38.612Z,23.03
2019-05-01T10:36:00.078Z,21.90
2019-05-01T10:37:04.844Z,21.75
2019-05-01T10:38:10.749Z,25.68
2019-05-01T10:39:16.098Z,26.23
2019-05-01T10:40:22.431Z,23.70
2019-05-01T10:41:26.830Z,22.52
2019-05-01T10:42:31.259Z,23.53
2019-05-01T10:43:35.541Z,22.27
2019-05-01T10:44:40.042Z,21.00
2019-05-01T10:45:45.930Z,20.97
2019-05-01T10:46:50.253Z,17.12
2019-05-01T10:47:54.617Z,19.90
2019-05-01T10:48:59.003Z,19.10
2019-05-01T10:50:03.820Z,16.32
2019-05-01T10:51:08.201Z,16.70
2019-05-01T10:52:14.345Z,13.20
2019-05-01T10:53:18.667Z,13.40
2019-05-01T10:54:23.827Z,12.03
2019-05-01T10:55:28.494Z,13.68
2019-05-01T10:56:32.861Z,12.75
2019-05-01T10:57:40.240Z,12.25
2019-05-01T10:58:43.218Z,14.33
2019-05-01T10:59:47.636Z,15.20
2019-05-01T11:00:53.498Z,16.23
2019-05-01T11:01:59.322Z,14.23
2019-05-01T11:03:03.504Z,17.73
2019-05-01T11:04:07.767Z,18.35
2019-05-01T11:05:11.948Z,15.43
2019-05-01T11:06:16.299Z,16.95
2019-05-01T11:07:20.505Z,17.80
2019-05-01T11:08:24.857Z,16.48
2019-05-01T11:09:29.197Z,16.42
2019-05-01T11:10:33.408Z,17.92
2019-05-01T11:11:37.648Z,16.25
2019-05-01T11:12:41.779Z,17.32
2019-05-01T11:13:45.972Z,19.52
2019-05-01T11:14:50.498Z,15.10
2019-05-01T11:15:55.935Z,14.30
2019-05-01T11:17:00.191Z,17.10
2019-05-01T11:18:05.064Z,18.28
2019-05-01T11:19:09.468Z,15.40
2019-05-01T11:20:13.747Z,17.90
2019-05-01T11:21:17.972Z,15.85
2019-05-01T11:22:22.258Z,15.67
2019-05-01T11:23:26.617Z,15.00
2019-05-01T11:24:30.805Z,12.37
2019-05-01T11:25:36.340Z,14.20
2019-05-01T11:26:40.700Z,13.80
2019-05-01T11:27:45.082Z,13.48
2019-05-01T11:28:49.329Z,16.87
2019-05-01T11:29:53.510Z,16.20
2019-05-01T11:30:57.842Z,13.43
2019-05-01T11:32:19.964Z,16.05
2019-05-01T11:33:34.303Z,16.23
2019-05-01T11:34:45.864Z,13.75
2019-05-01T11:35:54.241Z,12.15
2019-05-01T11:37:08.780Z,10.95
2019-05-01T11:38:20.727Z,11.60
2019-05-01T11:39:40.275Z,10.88
2019-05-01T11:40:45.297Z,13.93
2019-05-01T11:41:56.922Z,12.78
2019-05-01T11:43:02.800Z,14.65
2019-05-01T11:49:02.648Z,13.93
2019-05-01T11:50:07.044Z,16.50
2019-05-01T11:51:11.222Z,13.37
2019-05-01T11:52:15.604Z,14.23
2019-05-01T11:53:19.806Z,14.53
2019-05-01T11:54:23.997Z,15.93
2019-05-01T11:55:28.227Z,14.45
2019-05-01T11:56:32.415Z,14.25
2019-05-01T11:57:36.808Z,16.10
2019-05-01T11:58:40.988Z,12.88
2019-05-01T11:59:45.188Z,13.90
2019-05-01T12:00:50.465Z,15.50
2019-05-01T12:01:54.715Z,13.65
2019-05-01T12:02:58.954Z,15.05
2019-05-01T12:04:03.256Z,13.35
2019-05-01T12:05:07.508Z,13.32
2019-05-01T12:06:22.326Z,12.87
2019-05-01T12:07:17.760Z,16.50
2019-05-01T12:08:22.090Z,16.53
2019-05-01T12:09:26.271Z,13.32
2019-05-01T12:10:30.674Z,13.85
2019-05-01T12:11:35.925Z,14.13
2019-05-01T12:12:40.202Z,10.65
2019-05-01T12:13:44.508Z,12.07
2019-05-01T12:14:48.806Z,13.58
2019-05-01T12:15:54.622Z,13.05
2019-05-01T12:17:00.473Z,16.03
2019-05-01T12:18:04.763Z,12.20
2019-05-01T12:19:09.016Z,14.28
2019-05-01T12:20:13.773Z,12.90
2019-05-01T12:21:17.947Z,11.83
2019-05-01T12:22:22.161Z,14.60
2019-05-01T12:23:26.364Z,14.15
2019-05-01T12:24:30.766Z,14.47
2019-05-01T12:25:35.242Z,14.07
2019-05-01T12:26:39.420Z,14.83
2019-05-01T12:27:43.947Z,13.93
2019-05-01T12:28:48.131Z,13.18
2019-05-01T12:29:52.479Z,14.30
2019-05-01T12:30:56.648Z,13.93
2019-05-01T12:32:00.928Z,15.53
2019-05-01T12:33:05.097Z,13.93
2019-05-01T12:34:09.278Z,14.15
2019-05-01T12:35:13.624Z,14.57
2019-05-01T12:36:18.040Z,14.77
2019-05-01T12:37:23.851Z,14.50
2019-05-01T12:38:28.386Z,17.47
2019-05-01T12:39:32.636Z,15.32
2019-05-01T12:40:37.127Z,14.65
2019-05-01T12:41:45.703Z,15.60
2019-05-01T12:42:49.890Z,13.50
2019-05-01T12:43:54.213Z,15.28
2019-05-01T12:44:59.651Z,18.98
2019-05-01T12:46:04.642Z,14.95
2019-05-01T12:47:19.383Z,12.82
2019-05-01T12:48:23.829Z,13.30
2019-05-01T12:49:28.080Z,18.85
2019-05-01T12:50:32.312Z,14.28
2019-05-01T12:51:37.352Z,14.58
2019-05-01T12:52:47.464Z,16.37
2019-05-01T12:53:53.295Z,12.97
2019-05-01T12:55:15.004Z,15.18
2019-05-01T12:56:20.864Z,12.40
2019-05-01T12:57:25.054Z,12.53
2019-05-01T12:58:29.397Z,14.07
2019-05-01T12:59:33.540Z,15.05
2019-05-01T13:00:45.189Z,13.53
2019-05-01T13:01:49.360Z,13.75
2019-05-01T13:02:53.662Z,21.70
2019-05-01T13:03:57.944Z,11.70
2019-05-01T13:05:02.135Z,13.13
2019-05-01T13:06:06.329Z,14.28
2019-05-01T13:07:10.517Z,15.80
2019-05-01T13:08:14.732Z,15.87
2019-05-01T13:09:18.919Z,12.60
2019-05-01T13:10:23.089Z,12.17
2019-05-01T13:11:27.385Z,15.90
2019-05-01T13:12:31.552Z,13.95
2019-05-01T13:13:35.863Z,12.73
2019-05-01T13:14:40.026Z,13.88
2019-05-01T13:15:44.201Z,12.30
2019-05-01T13:16:48.382Z,12.33
2019-05-01T13:17:52.638Z,13.98
2019-05-01T13:18:56.841Z,15.30
2019-05-01T13:20:01.095Z,12.07
2019-05-01T13:21:05.280Z,11.35
2019-05-01T13:22:09.460Z,12.47
2019-05-01T13:23:13.766Z,13.33
2019-05-01T13:24:18.135Z,14.03
2019-05-01T13:25:22.330Z,10.87
2019-05-01T13:26:36.949Z,14.38
2019-05-01T13:27:42.773Z,13.55
2019-05-01T13:28:57.397Z,10.30
2019-05-01T13:30:08.908Z,11.68
2019-05-01T13:31:14.814Z,11.00
2019-05-01T13:32:20.649Z,10.20
2019-05-01T13:33:25.010Z,16.20
2019-05-01T13:34:29.194Z,12.85
2019-05-01T13:35:33.465Z,10.58
2019-05-01T13:36:37.937Z,13.55
2019-05-01T13:37:42.109Z,9.68
2019-05-01T13:38:46.427Z,10.32
2019-05-01T13:39:51.678Z,10.28
2019-05-01T13:40:55.872Z,12.27
2019-05-01T13:42:00.204Z,13.15
2019-05-01T13:43:04.388Z,11.20
2019-05-01T13:46:40.200Z,10.82
2019-05-01T13:47:44.485Z,9.03
2019-05-01T13:48:48.651Z,12.47
2019-05-01T13:49:52.904Z,13.45
2019-05-01T13:50:58.149Z,10.65
2019-05-01T13:52:02.347Z,9.03
2019-05-01T13:53:06.647Z,11.80
2019-05-01T13:54:11.317Z,10.03
2019-05-01T13:55:15.571Z,9.75
2019-05-01T13:56:19.885Z,11.87
2019-05-01T13:57:24.201Z,10.80
2019-05-01T13:58:29.502Z,6.50
2019-05-01T13:59:33.677Z,9.28
2019-05-01T14:00:38.047Z,10.45
2019-05-01T14:01:42.225Z,9.83
2019-05-01T14:02:46.474Z,10.65
2019-05-01T14:03:50.651Z,10.53
2019-05-01T14:04:54.934Z,9.80
2019-05-01T14:05:59.234Z,10.38
2019-05-01T14:07:15.903Z,10.26
2019-05-01T14:08:10.198Z,10.95
2019-05-01T14:09:19.233Z,8.97
2019-05-01T14:10:24.116Z,7.97
2019-05-01T14:11:28.320Z,8.90
2019-05-01T14:12:32.490Z,9.95
2019-05-01T14:13:36.721Z,10.18
2019-05-01T14:14:40.958Z,9.60
2019-05-01T14:15:45.354Z,10.08
2019-05-01T14:16:49.629Z,9.63
2019-05-01T14:17:53.828Z,10.98
2019-05-01T14:18:58.041Z,11.08
2019-05-01T14:20:03.997Z,8.78
2019-05-01T14:21:18.887Z,9.75
2019-05-01T14:22:33.595Z,9.13
2019-05-01T14:23:45.240Z,9.15
2019-05-01T14:24:51.044Z,9.23
2019-05-01T14:26:06.188Z,9.60
2019-05-01T14:27:10.356Z,10.10
2019-05-01T14:28:14.574Z,8.70
2019-05-01T14:29:18.793Z,9.13
2019-05-01T14:30:22.964Z,13.08